Time;durP1;ratioP1;P1;durP2;ratioP2;P2;SDS_P1;SDS_P2;PMS_P1;PMS_P2;Temp;Humidity;BMP_temperature;BMP_pressure;BME280_temperature;BME280_humidity;BME280_pressure;Samples;Min_cycle;Max_cycle;Signal;HPM_P1;HPM_P2
2023/01/31 00:01:04;;;;;;;4.10;3.90;;;;;;;;;;5048957;28;20578;-70
2023/01/31 00:03:29;;;;;;;4.80;4.50;;;;;;;;;;5050107;28;20463;-73
2023/01/31 00:05:55;;;;;;;4.50;4.20;;;;;;;;;;5046878;28;20477;-71
2023/01/31 00:08:21;;;;;;;3.77;3.67;;;;;;;;;;5050410;28;20427;-74
2023/01/31 00:10:47;;;;;;;4.30;4.00;;;;;;;;;;5051258;28;20438;-73
2023/01/31 00:13:13;;;;;;;4.37;4.17;;;;;;;;;;5050736;28;20442;-71
2023/01/31 00:15:39;;;;;;;4.37;3.97;;;;;;;;;;5020616;28;20476;-72
2023/01/31 00:18:05;;;;;;;4.87;4.57;;;;;;;;;;5032644;28;20439;-74
2023/01/31 00:20:31;;;;;;;4.03;3.73;;;;;;;;;;5046682;28;20466;-70
2023/01/31 00:22:57;;;;;;;4.30;4.03;;;;;;;;;;5028267;28;20441;-70
2023/01/31 00:25:23;;;;;;;4.10;3.80;;;;;;;;;;5031519;28;20438;-70
2023/01/31 00:27:49;;;;;;;4.23;4.03;;;;;;;;;;5049748;28;20946;-72
2023/01/31 00:30:15;;;;;;;3.93;3.83;;;;;;;;;;5050594;28;20462;-72
2023/01/31 00:32:41;;;;;;;4.00;3.80;;;;;;;;;;5046817;28;20496;-73
2023/01/31 00:35:07;;;;;;;4.93;4.43;;;;;;;;;;5049266;28;20434;-70
2023/01/31 00:37:33;;;;;;;3.77;3.60;;;;;;;;;;5049662;28;20459;-70
2023/01/31 00:39:59;;;;;;;4.57;4.17;;;;;;;;;;5048970;28;20472;-71
2023/01/31 00:42:25;;;;;;;5.63;4.37;;;;;;;;;;5048800;28;20547;-72
2023/01/31 00:44:51;;;;;;;4.63;4.33;;;;;;;;;;5049323;28;20430;-71
2023/01/31 00:47:17;;;;;;;5.00;4.50;;;;;;;;;;5049296;28;20453;-69
2023/01/31 00:49:43;;;;;;;4.43;4.13;;;;;;;;;;5048288;28;20437;-73
2023/01/31 00:52:09;;;;;;;4.23;4.00;;;;;;;;;;5048906;28;20956;-71
2023/01/31 00:54:35;;;;;;;4.00;3.70;;;;;;;;;;5048827;28;20838;-71
2023/01/31 00:57:01;;;;;;;3.80;3.60;;;;;;;;;;5049271;28;20770;-70
2023/01/31 00:59:26;;;;;;;4.20;4.00;;;;;;;;;;5048921;28;20883;-70
2023/01/31 01:01:52;;;;;;;4.37;4.10;;;;;;;;;;5046486;28;20543;-69
2023/01/31 01:04:18;;;;;;;5.00;4.73;;;;;;;;;;5048996;28;20422;-71
2023/01/31 01:06:46;;;;;;;4.87;4.33;;;;;;;;;;5048215;28;20481;-72
2023/01/31 01:09:12;;;;;;;9.87;7.50;;;;;;;;;;5048623;28;20426;-71
2023/01/31 01:11:38;;;;;;;7.60;6.50;;;;;;;;;;5048746;28;20449;-73
2023/01/31 01:14:04;;;;;;;13.10;8.07;;;;;;;;;;5048996;28;20798;-72
2023/01/31 01:16:31;;;;;;;14.63;7.60;;;;;;;;;;5045644;28;20446;-72
2023/01/31 01:18:57;;;;;;;6.87;6.20;;;;;;;;;;5047539;28;20434;-73
2023/01/31 01:21:24;;;;;;;14.50;8.53;;;;;;;;;;5046503;28;20502;-74
2023/01/31 01:23:51;;;;;;;8.07;6.10;;;;;;;;;;5048877;28;20869;-71
2023/01/31 01:26:19;;;;;;;4.63;4.33;;;;;;;;;;5045216;28;20434;-73
2023/01/31 01:28:46;;;;;;;4.70;4.50;;;;;;;;;;5046141;28;20934;-72
2023/01/31 01:31:13;;;;;;;4.90;4.60;;;;;;;;;;5049813;28;20422;-72
2023/01/31 01:33:39;;;;;;;5.13;4.77;;;;;;;;;;5044187;28;20446;-71
2023/01/31 01:36:06;;;;;;;4.93;4.73;;;;;;;;;;5029389;28;20866;-71
2023/01/31 01:38:36;;;;;;;5.37;5.07;;;;;;;;;;5046714;28;20517;-71
2023/01/31 01:41:02;;;;;;;4.70;4.40;;;;;;;;;;5047444;28;20484;-71
2023/01/31 01:43:40;;;;;;;4.60;4.40;;;;;;;;;;5047848;28;20868;-73
2023/01/31 01:46:08;;;;;;;4.90;4.60;;;;;;;;;;5047672;28;21042;-70
2023/01/31 01:48:34;;;;;;;4.97;4.50;;;;;;;;;;5043022;28;20988;-72
2023/01/31 01:51:00;;;;;;;4.47;4.27;;;;;;;;;;5031303;28;20434;-71
2023/01/31 01:53:28;;;;;;;4.50;4.20;;;;;;;;;;5046599;28;20441;-73
2023/01/31 01:55:55;;;;;;;5.00;4.70;;;;;;;;;;5045850;28;20473;-71
2023/01/31 01:58:36;;;;;;;4.53;4.13;;;;;;;;;;5047363;28;20445;-74
2023/01/31 02:01:04;;;;;;;5.13;4.70;;;;;;;;;;5048360;28;20482;-74
2023/01/31 02:03:30;;;;;;;5.97;5.37;;;;;;;;;;5046007;28;20466;-72
2023/01/31 02:05:59;;;;;;;4.93;4.63;;;;;;;;;;5046483;28;20442;-72
2023/01/31 02:08:26;;;;;;;5.70;4.93;;;;;;;;;;5046051;28;20439;-69
2023/01/31 02:10:58;;;;;;;3.93;3.73;;;;;;;;;;5047256;28;20442;-69
2023/01/31 02:13:24;;;;;;;4.33;4.07;;;;;;;;;;5047850;28;20438;-72
2023/01/31 02:15:50;;;;;;;5.20;4.70;;;;;;;;;;5046995;28;20854;-70
2023/01/31 02:18:18;;;;;;;4.67;4.37;;;;;;;;;;5046689;28;20525;-68
2023/01/31 02:20:44;;;;;;;4.63;4.23;;;;;;;;;;5046825;28;20536;-69
2023/01/31 02:23:29;;;;;;;5.63;4.10;;;;;;;;;;5046893;28;20431;-70
2023/01/31 02:26:04;;;;;;;5.00;4.53;;;;;;;;;;5029797;28;20461;-70
2023/01/31 02:28:40;;;;;;;5.77;5.23;;;;;;;;;;5046209;28;20446;-70
2023/01/31 02:31:25;;;;;;;5.30;4.40;;;;;;;;;;5044350;28;20457;-73
2023/01/31 02:33:56;;;;;;;5.10;4.73;;;;;;;;;;5045702;28;20522;-72
2023/01/31 02:36:28;;;;;;;4.47;4.17;;;;;;;;;;5045399;28;20438;-73
2023/01/31 02:38:59;;;;;;;5.33;4.80;;;;;;;;;;5045430;28;20455;-73
2023/01/31 02:41:43;;;;;;;4.90;4.60;;;;;;;;;;5047532;28;20485;-72
2023/01/31 02:47:01;;;;;;;5.10;4.70;;;;;;;;;;5045866;28;20870;-73
2023/01/31 02:49:33;;;;;;;4.70;4.30;;;;;;;;;;5046676;28;20447;-72
2023/01/31 02:52:15;;;;;;;4.93;3.90;;;;;;;;;;5045436;28;20434;-72
2023/01/31 02:57:49;;;;;;;3.93;3.43;;;;;;;;;;4985288;28;20432;-74
2023/01/31 03:00:15;;;;;;;4.13;3.70;;;;;;;;;;4968892;28;20484;-73
2023/01/31 03:02:41;;;;;;;4.27;3.87;;;;;;;;;;5013704;28;20984;-72
2023/01/31 03:05:07;;;;;;;4.87;4.67;;;;;;;;;;5046168;28;20430;-70
2023/01/31 03:07:36;;;;;;;5.10;4.80;;;;;;;;;;5023489;28;20450;-73
2023/01/31 03:10:09;;;;;;;5.73;4.60;;;;;;;;;;5044866;28;20451;-73
2023/01/31 03:12:46;;;;;;;4.50;4.20;;;;;;;;;;5047135;28;20473;-72
2023/01/31 03:17:30;;;;;;;4.73;4.47;;;;;;;;;;5051501;28;20454;-73
2023/01/31 03:18:21;;;;;;;4.90;4.53;;;;;;;;;;5050708;28;20794;-72
2023/01/31 03:20:47;;;;;;;4.97;4.53;;;;;;;;;;5052094;28;20481;-70
2023/01/31 03:23:15;;;;;;;4.80;4.50;;;;;;;;;;5051082;28;20430;-69
2023/01/31 03:25:41;;;;;;;4.70;4.30;;;;;;;;;;5050224;28;20472;-71
2023/01/31 03:28:12;;;;;;;6.20;5.50;;;;;;;;;;5048538;28;20434;-69
2023/01/31 03:30:56;;;;;;;5.07;4.63;;;;;;;;;;5047509;28;20440;-69
2023/01/31 03:33:28;;;;;;;5.97;5.00;;;;;;;;;;5051689;28;20453;-72
2023/01/31 03:36:02;;;;;;;5.73;5.23;;;;;;;;;;5044786;28;20584;-71
2023/01/31 03:38:31;;;;;;;12.00;6.77;;;;;;;;;;5049733;28;20938;-74
2023/01/31 03:41:01;;;;;;;7.53;5.40;;;;;;;;;;5048053;28;20484;-74
2023/01/31 03:43:39;;;;;;;6.83;6.13;;;;;;;;;;5051579;28;21018;-73
2023/01/31 03:46:11;;;;;;;15.30;8.77;;;;;;;;;;5049753;28;20430;-71
2023/01/31 03:48:42;;;;;;;8.30;5.93;;;;;;;;;;5050052;28;20449;-68
2023/01/31 03:51:09;;;;;;;8.93;6.73;;;;;;;;;;5050089;28;20449;-74
2023/01/31 03:54:00;;;;;;;9.70;8.13;;;;;;;;;;5049716;28;20976;-72
2023/01/31 03:56:43;;;;;;;6.00;5.40;;;;;;;;;;5049520;28;20438;-71
2023/01/31 03:59:13;;;;;;;7.87;5.53;;;;;;;;;;5051495;28;20519;-69
2023/01/31 04:01:42;;;;;;;9.87;6.10;;;;;;;;;;5049113;28;20493;-73
2023/01/31 04:04:11;;;;;;;5.97;5.40;;;;;;;;;;5050567;28;20418;-71
2023/01/31 04:06:37;;;;;;;7.80;6.00;;;;;;;;;;5049092;28;21132;-73
2023/01/31 04:09:03;;;;;;;9.30;5.07;;;;;;;;;;5051109;28;20421;-74
2023/01/31 04:11:30;;;;;;;5.17;4.70;;;;;;;;;;5051973;28;20422;-72
2023/01/31 04:13:56;;;;;;;7.03;4.87;;;;;;;;;;5031511;28;20518;-70
2023/01/31 04:16:22;;;;;;;6.87;6.13;;;;;;;;;;5050905;28;20509;-73
2023/01/31 04:18:48;;;;;;;5.70;5.17;;;;;;;;;;5048942;28;20428;-72
2023/01/31 04:21:14;;;;;;;5.97;5.47;;;;;;;;;;5049535;28;20478;-70
2023/01/31 04:23:40;;;;;;;5.50;4.83;;;;;;;;;;5050551;28;20426;-74
2023/01/31 04:26:06;;;;;;;20.87;9.17;;;;;;;;;;5049732;28;20449;-74
2023/01/31 04:28:32;;;;;;;13.13;7.23;;;;;;;;;;5050292;28;20476;-74
2023/01/31 04:30:58;;;;;;;6.30;5.17;;;;;;;;;;5049761;28;20438;-73
2023/01/31 04:33:24;;;;;;;5.20;4.87;;;;;;;;;;5048561;28;20449;-72
2023/01/31 04:35:50;;;;;;;6.93;5.53;;;;;;;;;;5049977;28;20442;-73
2023/01/31 04:38:16;;;;;;;5.83;5.23;;;;;;;;;;5051215;28;20425;-74
2023/01/31 04:40:42;;;;;;;5.80;4.67;;;;;;;;;;5050533;28;20474;-74
2023/01/31 04:43:08;;;;;;;5.10;4.70;;;;;;;;;;5049111;28;20472;-73
2023/01/31 04:45:34;;;;;;;4.90;4.50;;;;;;;;;;5051296;28;20422;-71
2023/01/31 04:48:00;;;;;;;4.73;4.33;;;;;;;;;;5050670;28;20465;-70
2023/01/31 04:50:26;;;;;;;4.50;4.20;;;;;;;;;;5050349;28;20422;-69
2023/01/31 04:52:52;;;;;;;5.20;4.90;;;;;;;;;;5049620;28;20430;-68
2023/01/31 04:55:18;;;;;;;8.57;6.20;;;;;;;;;;5050337;28;20478;-73
2023/01/31 04:57:44;;;;;;;5.57;5.07;;;;;;;;;;5049805;28;20528;-72
2023/01/31 05:00:11;;;;;;;5.60;5.20;;;;;;;;;;5048514;28;20518;-71
2023/01/31 05:02:37;;;;;;;4.60;4.20;;;;;;;;;;5049828;28;21014;-67
2023/01/31 05:05:03;;;;;;;6.40;5.87;;;;;;;;;;5049117;28;20513;-70
2023/01/31 05:07:29;;;;;;;4.27;4.03;;;;;;;;;;5050426;28;20802;-71
2023/01/31 05:09:55;;;;;;;5.17;4.87;;;;;;;;;;5049068;28;20438;-69
2023/01/31 05:12:22;;;;;;;5.67;5.23;;;;;;;;;;5048065;28;20434;-68
2023/01/31 05:14:50;;;;;;;5.90;4.47;;;;;;;;;;5050579;28;20434;-71
2023/01/31 05:17:16;;;;;;;5.53;5.10;;;;;;;;;;5050354;28;20802;-71
2023/01/31 05:19:42;;;;;;;5.30;4.50;;;;;;;;;;5030009;28;20426;-68
2023/01/31 05:22:08;;;;;;;4.43;4.03;;;;;;;;;;5015575;28;20578;-71
2023/01/31 05:24:35;;;;;;;4.60;4.30;;;;;;;;;;5049857;28;20850;-67
2023/01/31 05:27:01;;;;;;;5.47;4.93;;;;;;;;;;5049953;28;20442;-72
2023/01/31 05:29:28;;;;;;;5.50;5.00;;;;;;;;;;5031778;28;21022;-73
2023/01/31 05:31:56;;;;;;;5.20;4.90;;;;;;;;;;5049804;28;20449;-74
2023/01/31 05:34:24;;;;;;;5.37;4.93;;;;;;;;;;5046926;28;20442;-70
2023/01/31 05:36:50;;;;;;;4.03;3.80;;;;;;;;;;5020914;28;20470;-72
2023/01/31 05:39:16;;;;;;;4.53;4.07;;;;;;;;;;5048797;28;20458;-74
2023/01/31 05:41:42;;;;;;;5.73;5.23;;;;;;;;;;5031954;28;20478;-69
2023/01/31 05:44:09;;;;;;;4.50;4.30;;;;;;;;;;5030739;28;20470;-73
2023/01/31 05:46:35;;;;;;;4.43;4.20;;;;;;;;;;5046996;28;20949;-73
2023/01/31 05:49:01;;;;;;;4.77;4.33;;;;;;;;;;5049878;28;20439;-71
2023/01/31 05:51:27;;;;;;;3.80;3.60;;;;;;;;;;5026954;28;20438;-71
2023/01/31 05:53:53;;;;;;;4.00;3.67;;;;;;;;;;5048817;28;20450;-75
2023/01/31 05:56:20;;;;;;;4.30;4.00;;;;;;;;;;5048995;28;20478;-71
2023/01/31 05:58:49;;;;;;;4.00;3.80;;;;;;;;;;5049908;28;20430;-71
2023/01/31 06:01:15;;;;;;;3.63;3.43;;;;;;;;;;5048852;28;20498;-71
2023/01/31 06:03:41;;;;;;;4.40;3.93;;;;;;;;;;5047117;28;20885;-74
2023/01/31 06:06:07;;;;;;;5.00;4.60;;;;;;;;;;5047335;28;20438;-73
2023/01/31 06:08:33;;;;;;;4.60;3.97;;;;;;;;;;5048438;28;20527;-74
2023/01/31 06:11:05;;;;;;;4.77;4.40;;;;;;;;;;5048402;28;20438;-69
2023/01/31 06:13:32;;;;;;;9.17;4.00;;;;;;;;;;5048553;28;20453;-68
2023/01/31 06:15:58;;;;;;;4.10;3.90;;;;;;;;;;5046153;28;20513;-72
2023/01/31 06:18:25;;;;;;;5.37;4.37;;;;;;;;;;5048857;28;20442;-72
2023/01/31 06:20:51;;;;;;;4.77;4.40;;;;;;;;;;5046179;28;20574;-71
2023/01/31 06:23:17;;;;;;;6.23;5.60;;;;;;;;;;5047826;28;20518;-73
2023/01/31 06:25:43;;;;;;;6.93;4.90;;;;;;;;;;5049386;28;20418;-73
2023/01/31 06:28:09;;;;;;;6.13;5.63;;;;;;;;;;5048115;28;20461;-72
2023/01/31 06:30:35;;;;;;;6.95;6.35;;;;;;;;;;5046140;28;20475;-70
2023/01/31 06:33:01;;;;;;;5.87;5.37;;;;;;;;;;5047923;28;20225;-72
2023/01/31 06:35:27;;;;;;;6.53;5.83;;;;;;;;;;5048659;28;20433;-71
2023/01/31 06:37:56;;;;;;;6.37;5.63;;;;;;;;;;5049092;28;20415;-68
2023/01/31 06:40:22;;;;;;;5.03;4.53;;;;;;;;;;5048709;28;20438;-68
2023/01/31 06:42:48;;;;;;;6.83;6.33;;;;;;;;;;5031770;28;20453;-72
2023/01/31 06:45:14;;;;;;;10.90;7.10;;;;;;;;;;5048588;28;20418;-71
2023/01/31 06:47:40;;;;;;;7.07;6.17;;;;;;;;;;5050356;28;20438;-68
2023/01/31 06:50:06;;;;;;;5.83;5.30;;;;;;;;;;5032499;28;20468;-72
2023/01/31 06:52:32;;;;;;;5.00;4.70;;;;;;;;;;5053123;28;21079;-70
2023/01/31 06:54:58;;;;;;;19.13;5.60;;;;;;;;;;5052676;28;20451;-72
2023/01/31 06:57:24;;;;;;;6.77;5.70;;;;;;;;;;5051943;28;20473;-70
2023/01/31 06:59:50;;;;;;;4.80;4.40;;;;;;;;;;5053142;28;20422;-72
2023/01/31 07:02:16;;;;;;;5.40;5.00;;;;;;;;;;5052249;28;20478;-70
2023/01/31 07:04:42;;;;;;;6.63;5.90;;;;;;;;;;5052101;28;20520;-66
2023/01/31 07:07:07;;;;;;;5.70;5.10;;;;;;;;;;5052857;28;20452;-66
2023/01/31 07:09:33;;;;;;;5.40;5.00;;;;;;;;;;5033689;28;20794;-69
2023/01/31 07:12:01;;;;;;;5.17;4.83;;;;;;;;;;5035902;28;20973;-68
2023/01/31 07:14:27;;;;;;;5.87;5.27;;;;;;;;;;5051502;28;20441;-68
2023/01/31 07:16:53;;;;;;;7.60;6.07;;;;;;;;;;5034393;28;20444;-69
2023/01/31 07:19:19;;;;;;;7.47;6.23;;;;;;;;;;5051412;28;20476;-68
2023/01/31 07:21:47;;;;;;;6.23;5.83;;;;;;;;;;5052357;28;20485;-68
2023/01/31 07:24:13;;;;;;;8.00;7.30;;;;;;;;;;5052640;28;20928;-68
2023/01/31 07:26:39;;;;;;;7.80;7.20;;;;;;;;;;5050519;28;20435;-69
2023/01/31 07:29:05;;;;;;;10.70;6.47;;;;;;;;;;5049421;28;20807;-66
2023/01/31 07:31:31;;;;;;;11.52;8.50;;;;;;;;;;5051754;28;20799;-66
2023/01/31 07:33:57;;;;;;;7.97;7.03;;;;;;;;;;5050061;28;20667;-66
2023/01/31 07:36:25;;;;;;;12.10;7.10;;;;;;;;;;5050803;28;20993;-67
2023/01/31 07:38:54;;;;;;;8.57;6.33;;;;;;;;;;5051452;28;20449;-68
2023/01/31 07:41:20;;;;;;;6.70;6.00;;;;;;;;;;5052167;28;20826;-68
2023/01/31 07:43:46;;;;;;;7.63;6.80;;;;;;;;;;5052707;28;20418;-66
2023/01/31 07:46:12;;;;;;;6.40;5.80;;;;;;;;;;5042759;28;20996;-67
2023/01/31 07:48:38;;;;;;;7.27;5.87;;;;;;;;;;5048959;28;20934;-66
2023/01/31 07:51:04;;;;;;;10.20;5.10;;;;;;;;;;5051059;28;20514;-66
2023/01/31 07:53:31;;;;;;;6.87;6.20;;;;;;;;;;5052229;28;20446;-66
2023/01/31 07:56:17;;;;;;;6.30;5.70;;;;;;;;;;5045638;28;20561;-68
2023/01/31 07:58:44;;;;;;;7.10;6.40;;;;;;;;;;5049522;28;20572;-66
2023/01/31 08:03:58;;;;;;;6.43;5.80;;;;;;;;;;5052030;28;20452;-66
2023/01/31 08:06:24;;;;;;;5.77;5.20;;;;;;;;;;5047498;28;20424;-68
2023/01/31 08:08:50;;;;;;;7.80;6.23;;;;;;;;;;5049613;28;20434;-66
2023/01/31 08:11:16;;;;;;;7.50;6.57;;;;;;;;;;5051574;28;20988;-67
2023/01/31 08:13:42;;;;;;;6.97;6.17;;;;;;;;;;5051629;28;20509;-66
2023/01/31 08:16:09;;;;;;;7.90;7.10;;;;;;;;;;5049643;28;20437;-66
2023/01/31 08:18:35;;;;;;;6.30;5.70;;;;;;;;;;5049998;28;20449;-67
2023/01/31 08:21:01;;;;;;;5.93;5.40;;;;;;;;;;5051019;28;20470;-66
2023/01/31 08:23:28;;;;;;;8.00;5.83;;;;;;;;;;5051231;28;20415;-66
2023/01/31 08:26:05;;;;;;;6.70;5.97;;;;;;;;;;5032096;28;20834;-66
2023/01/31 08:28:31;;;;;;;7.40;6.20;;;;;;;;;;5050128;28;20437;-66
2023/01/31 08:30:58;;;;;;;7.43;6.30;;;;;;;;;;5050054;28;20427;-66
2023/01/31 08:33:24;;;;;;;11.57;5.30;;;;;;;;;;5049516;28;20937;-67
2023/01/31 08:35:51;;;;;;;6.67;5.60;;;;;;;;;;5048569;28;20476;-66
2023/01/31 08:38:17;;;;;;;6.27;5.67;;;;;;;;;;5050599;28;20941;-68
2023/01/31 08:40:44;;;;;;;7.40;5.60;;;;;;;;;;5050456;28;20478;-67
2023/01/31 08:43:10;;;;;;;6.03;5.43;;;;;;;;;;5046349;28;20473;-68
2023/01/31 08:45:36;;;;;;;12.17;7.57;;;;;;;;;;5047692;28;20430;-70
2023/01/31 08:48:02;;;;;;;8.77;6.90;;;;;;;;;;5050239;28;20787;-68
2023/01/31 08:50:29;;;;;;;7.10;6.40;;;;;;;;;;5051338;28;20455;-67
2023/01/31 08:52:56;;;;;;;5.83;5.33;;;;;;;;;;5049605;28;20457;-66
2023/01/31 08:55:23;;;;;;;7.43;5.30;;;;;;;;;;5050710;28;20471;-67
2023/01/31 08:57:49;;;;;;;5.57;5.10;;;;;;;;;;5050916;28;20418;-67
2023/01/31 09:00:16;;;;;;;6.40;5.80;;;;;;;;;;5050796;28;20414;-66
2023/01/31 09:02:42;;;;;;;6.13;5.50;;;;;;;;;;5048734;28;20961;-66
2023/01/31 09:05:08;;;;;;;5.50;5.17;;;;;;;;;;5048601;28;20422;-67
2023/01/31 09:07:34;;;;;;;5.07;4.70;;;;;;;;;;5050338;28;20429;-68
2023/01/31 09:10:00;;;;;;;5.63;5.27;;;;;;;;;;5050807;28;20425;-68
2023/01/31 09:12:26;;;;;;;6.00;5.60;;;;;;;;;;5048173;28;20446;-67
2023/01/31 09:14:53;;;;;;;6.40;5.90;;;;;;;;;;5048822;28;20434;-70
2023/01/31 09:17:19;;;;;;;5.73;5.23;;;;;;;;;;5048871;28;20434;-66
2023/01/31 09:19:47;;;;;;;6.87;5.77;;;;;;;;;;5050961;28;20414;-68
2023/01/31 09:22:13;;;;;;;7.23;5.53;;;;;;;;;;5050270;28;20478;-67
2023/01/31 09:24:39;;;;;;;5.67;5.23;;;;;;;;;;5049417;28;20540;-66
2023/01/31 09:27:05;;;;;;;5.10;4.77;;;;;;;;;;5049314;28;20521;-66
2023/01/31 09:29:31;;;;;;;9.30;5.50;;;;;;;;;;5050151;28;20419;-66
2023/01/31 09:31:57;;;;;;;5.30;4.70;;;;;;;;;;5050461;28;20894;-65
2023/01/31 09:34:23;;;;;;;5.23;4.83;;;;;;;;;;5047798;28;20926;-66
2023/01/31 09:36:49;;;;;;;5.20;4.80;;;;;;;;;;5046024;28;20426;-67
2023/01/31 09:39:15;;;;;;;4.33;4.03;;;;;;;;;;5050183;28;20434;-69
2023/01/31 09:41:52;;;;;;;5.70;5.20;;;;;;;;;;5050168;28;20520;-70
2023/01/31 09:44:38;;;;;;;4.50;4.23;;;;;;;;;;5048972;28;20446;-68
2023/01/31 09:47:04;;;;;;;7.30;4.60;;;;;;;;;;5047866;28;20454;-66
2023/01/31 09:49:32;;;;;;;4.07;3.73;;;;;;;;;;5049742;28;20488;-66
2023/01/31 09:51:59;;;;;;;3.30;3.17;;;;;;;;;;5032188;28;20424;-66
2023/01/31 09:54:30;;;;;;;4.33;3.03;;;;;;;;;;5048854;28;20849;-68
2023/01/31 09:57:12;;;;;;;4.60;4.30;;;;;;;;;;5046647;28;20451;-65
2023/01/31 09:59:44;;;;;;;3.73;3.43;;;;;;;;;;5049181;28;20418;-66
2023/01/31 10:02:10;;;;;;;3.63;3.43;;;;;;;;;;5049058;28;20478;-66
2023/01/31 10:04:56;;;;;;;4.37;4.07;;;;;;;;;;5046987;28;20436;-68
2023/01/31 10:07:25;;;;;;;4.23;3.93;;;;;;;;;;5030347;28;20960;-66
2023/01/31 10:10:03;;;;;;;4.30;4.07;;;;;;;;;;5049807;28;20406;-66
2023/01/31 10:12:48;;;;;;;8.43;4.17;;;;;;;;;;5048783;28;20438;-66
2023/01/31 10:15:33;;;;;;;3.60;3.40;;;;;;;;;;5047965;28;20866;-66
2023/01/31 10:18:01;;;;;;;4.30;4.10;;;;;;;;;;5046534;28;20453;-73
2023/01/31 10:20:33;;;;;;;4.30;3.90;;;;;;;;;;5048435;28;20438;-79
2023/01/31 10:23:03;;;;;;;6.70;5.60;;;;;;;;;;5048881;28;20434;-66
2023/01/31 10:25:29;;;;;;;7.23;6.50;;;;;;;;;;5047959;28;20438;-68
2023/01/31 10:28:01;;;;;;;13.33;10.10;;;;;;;;;;5048557;28;20448;-69
2023/01/31 10:30:39;;;;;;;5.10;4.67;;;;;;;;;;5048535;28;21278;-66
2023/01/31 10:33:16;;;;;;;5.70;5.40;;;;;;;;;;5030541;28;20449;-67
2023/01/31 10:35:43;;;;;;;9.13;7.67;;;;;;;;;;5031277;28;20422;-66
2023/01/31 10:38:22;;;;;;;5.07;4.80;;;;;;;;;;5047661;28;21279;-66
2023/01/31 10:40:52;;;;;;;5.23;4.80;;;;;;;;;;5049613;28;20496;-68
2023/01/31 10:43:25;;;;;;;4.07;3.87;;;;;;;;;;5048288;28;20802;-67
2023/01/31 10:45:51;;;;;;;4.33;3.97;;;;;;;;;;5048694;28;20503;-66
2023/01/31 10:48:21;;;;;;;4.53;4.30;;;;;;;;;;5029941;28;20469;-71
2023/01/31 10:50:47;;;;;;;5.63;4.00;;;;;;;;;;5046445;28;20438;-68
2023/01/31 10:53:31;;;;;;;6.93;4.50;;;;;;;;;;5047991;28;20457;-69
2023/01/31 10:56:15;;;;;;;68.50;26.63;;;;;;;;;;5048747;28;20973;-66
2023/01/31 10:58:41;;;;;;;4.17;3.90;;;;;;;;;;5042553;28;20503;-70
2023/01/31 11:01:10;;;;;;;8.83;7.93;;;;;;;;;;5046217;28;20473;-69
2023/01/31 11:03:36;;;;;;;6.40;4.97;;;;;;;;;;5026963;28;20429;-71
2023/01/31 11:06:04;;;;;;;11.20;7.47;;;;;;;;;;5048698;28;20414;-69
2023/01/31 11:08:34;;;;;;;6.27;4.40;;;;;;;;;;5046705;28;20619;-71
2023/01/31 11:11:04;;;;;;;19.73;12.20;;;;;;;;;;5047098;28;21196;-67
2023/01/31 11:13:30;;;;;;;16.37;12.97;;;;;;;;;;5048992;28;20422;-71
2023/01/31 11:15:56;;;;;;;12.40;11.23;;;;;;;;;;5048593;28;20432;-67
2023/01/31 11:18:25;;;;;;;6.17;5.50;;;;;;;;;;5048387;28;20946;-68
2023/01/31 11:20:52;;;;;;;9.43;7.80;;;;;;;;;;5030109;28;20579;-67
2023/01/31 11:23:26;;;;;;;12.00;9.20;;;;;;;;;;5031034;28;20469;-68
2023/01/31 11:25:53;;;;;;;14.53;10.33;;;;;;;;;;5047165;28;20437;-67
2023/01/31 11:28:22;;;;;;;7.87;5.40;;;;;;;;;;5030170;28;20521;-68
2023/01/31 11:30:50;;;;;;;7.23;6.47;;;;;;;;;;5046264;28;20464;-68
2023/01/31 11:33:34;;;;;;;7.60;6.90;;;;;;;;;;5032356;28;20450;-68
2023/01/31 11:36:07;;;;;;;5.03;4.50;;;;;;;;;;5033509;28;20985;-68
2023/01/31 11:38:33;;;;;;;6.17;5.63;;;;;;;;;;5031442;28;20450;-67
2023/01/31 11:40:59;;;;;;;6.40;5.33;;;;;;;;;;5030291;28;20913;-67
2023/01/31 11:43:26;;;;;;;10.00;6.20;;;;;;;;;;5048445;28;20441;-67
2023/01/31 11:45:59;;;;;;;9.03;5.37;;;;;;;;;;5034070;28;20430;-70
2023/01/31 11:48:45;;;;;;;4.90;4.53;;;;;;;;;;5051879;28;20446;-67
2023/01/31 11:51:22;;;;;;;5.23;4.80;;;;;;;;;;5050084;28;20789;-70
2023/01/31 11:53:50;;;;;;;5.90;5.40;;;;;;;;;;5028747;28;20453;-67
2023/01/31 11:56:22;;;;;;;12.57;7.80;;;;;;;;;;5050606;28;20454;-68
2023/01/31 11:58:51;;;;;;;11.03;5.73;;;;;;;;;;5048332;28;20457;-67
2023/01/31 12:01:20;;;;;;;18.93;8.27;;;;;;;;;;5046007;28;21023;-68
2023/01/31 12:03:48;;;;;;;6.73;5.20;;;;;;;;;;5049230;28;20454;-67
2023/01/31 12:06:25;;;;;;;5.67;4.97;;;;;;;;;;5048346;28;20942;-69
2023/01/31 12:08:55;;;;;;;8.03;5.53;;;;;;;;;;5051767;28;20445;-66
2023/01/31 12:11:29;;;;;;;4.23;3.83;;;;;;;;;;5051025;28;20492;-68
2023/01/31 12:14:09;;;;;;;7.00;3.70;;;;;;;;;;5051102;28;20513;-70
2023/01/31 12:16:36;;;;;;;6.30;4.50;;;;;;;;;;5050282;28;20779;-67
2023/01/31 12:19:11;;;;;;;6.03;4.40;;;;;;;;;;5050115;28;20525;-66
2023/01/31 12:21:37;;;;;;;4.20;3.83;;;;;;;;;;5051824;28;20481;-70
2023/01/31 12:24:14;;;;;;;6.13;4.83;;;;;;;;;;5049808;28;20544;-70
2023/01/31 12:26:49;;;;;;;5.93;3.90;;;;;;;;;;5051116;28;20493;-70
2023/01/31 12:29:26;;;;;;;11.73;6.80;;;;;;;;;;5051283;28;20432;-68
2023/01/31 12:32:12;;;;;;;4.83;4.47;;;;;;;;;;5050849;28;20946;-68
2023/01/31 12:34:38;;;;;;;15.13;9.00;;;;;;;;;;5051142;28;20457;-68
2023/01/31 12:37:23;;;;;;;8.10;4.50;;;;;;;;;;5047454;28;20438;-71
2023/01/31 12:39:55;;;;;;;4.23;3.43;;;;;;;;;;5050074;28;20521;-69
2023/01/31 12:42:23;;;;;;;5.70;3.33;;;;;;;;;;5051173;28;20505;-67
2023/01/31 12:45:08;;;;;;;3.93;3.60;;;;;;;;;;5048862;28;20431;-69
2023/01/31 12:47:34;;;;;;;3.70;3.40;;;;;;;;;;5049889;28;20513;-67
2023/01/31 12:50:25;;;;;;;5.73;3.13;;;;;;;;;;5050750;28;20513;-70
2023/01/31 12:53:12;;;;;;;6.73;3.80;;;;;;;;;;5033519;28;20427;-66
2023/01/31 12:55:41;;;;;;;3.57;3.40;;;;;;;;;;5031774;28;20458;-70
2023/01/31 12:58:16;;;;;;;4.03;3.83;;;;;;;;;;5051112;28;20427;-67
2023/01/31 13:00:49;;;;;;;10.20;3.67;;;;;;;;;;5049659;28;20476;-68
2023/01/31 13:03:32;;;;;;;3.60;3.30;;;;;;;;;;5028309;28;20446;-68
2023/01/31 13:06:01;;;;;;;3.97;3.60;;;;;;;;;;5048675;28;20466;-67
2023/01/31 13:08:29;;;;;;;5.13;3.57;;;;;;;;;;5050919;28;20430;-66
2023/01/31 13:10:58;;;;;;;4.17;3.77;;;;;;;;;;5049827;28;20399;-67
2023/01/31 13:13:25;;;;;;;4.07;3.67;;;;;;;;;;5049297;28;20466;-72
2023/01/31 13:15:53;;;;;;;5.10;3.20;;;;;;;;;;5048691;28;20448;-68
2023/01/31 13:18:20;;;;;;;5.70;3.10;;;;;;;;;;5050408;28;20526;-68
2023/01/31 13:20:49;;;;;;;2.70;2.50;;;;;;;;;;5049795;28;20477;-68
2023/01/31 13:23:21;;;;;;;4.47;2.60;;;;;;;;;;5049824;28;20446;-66
2023/01/31 13:25:51;;;;;;;2.30;2.20;;;;;;;;;;5047676;28;20493;-69
2023/01/31 13:28:29;;;;;;;7.07;2.27;;;;;;;;;;5050298;28;20421;-67
2023/01/31 13:31:13;;;;;;;7.60;3.00;;;;;;;;;;5030723;28;20439;-66
2023/01/31 13:33:58;;;;;;;16.50;2.53;;;;;;;;;;5049963;28;20509;-70
2023/01/31 13:36:33;;;;;;;10.63;2.20;;;;;;;;;;5045568;28;20453;-66
2023/01/31 13:39:01;;;;;;;8.67;2.53;;;;;;;;;;5048739;28;20459;-68
2023/01/31 13:41:29;;;;;;;2.83;2.73;;;;;;;;;;5047778;28;21595;-68
2023/01/31 13:43:58;;;;;;;4.67;2.10;;;;;;;;;;5045087;28;20433;-66
2023/01/31 13:46:28;;;;;;;4.27;2.13;;;;;;;;;;5046241;28;20434;-71
2023/01/31 13:49:00;;;;;;;3.80;2.20;;;;;;;;;;5048213;28;20430;-70
2023/01/31 13:51:34;;;;;;;2.10;1.90;;;;;;;;;;5049289;28;20464;-72
2023/01/31 13:54:07;;;;;;;6.80;2.00;;;;;;;;;;5048542;28;20441;-69
2023/01/31 13:56:34;;;;;;;2.30;2.10;;;;;;;;;;5046618;28;20576;-68
2023/01/31 13:59:01;;;;;;;3.60;1.87;;;;;;;;;;5047329;28;20434;-68
2023/01/31 14:01:30;;;;;;;2.60;2.47;;;;;;;;;;5047097;28;20486;-67
2023/01/31 14:04:12;;;;;;;2.43;2.20;;;;;;;;;;5048282;28;20434;-67
2023/01/31 14:06:53;;;;;;;2.27;1.77;;;;;;;;;;5046079;28;20434;-68
2023/01/31 14:09:27;;;;;;;6.13;2.10;;;;;;;;;;5048455;28;20495;-66
2023/01/31 14:11:58;;;;;;;1.93;1.73;;;;;;;;;;5029970;28;20841;-66
2023/01/31 14:14:36;;;;;;;4.13;1.80;;;;;;;;;;5018789;28;20442;-66
2023/01/31 14:17:11;;;;;;;2.93;1.70;;;;;;;;;;5046290;28;20426;-67
2023/01/31 14:19:46;;;;;;;3.30;1.60;;;;;;;;;;5048844;28;20517;-69
2023/01/31 14:22:16;;;;;;;1.70;1.60;;;;;;;;;;5049305;28;20985;-66
2023/01/31 14:25:00;;;;;;;1.57;1.20;;;;;;;;;;5046736;28;20453;-67
2023/01/31 14:27:33;;;;;;;2.07;1.80;;;;;;;;;;5047252;28;20492;-66
2023/01/31 14:30:05;;;;;;;1.63;1.53;;;;;;;;;;5048978;28;20418;-66
2023/01/31 14:32:37;;;;;;;1.70;1.60;;;;;;;;;;5047722;28;20431;-68
2023/01/31 14:35:12;;;;;;;5.40;3.23;;;;;;;;;;5016762;28;20823;-67
2023/01/31 14:37:45;;;;;;;2.83;2.63;;;;;;;;;;5028824;28;20446;-67
2023/01/31 14:40:23;;;;;;;2.00;1.87;;;;;;;;;;5028309;28;20477;-67
2023/01/31 14:43:04;;;;;;;2.10;2.00;;;;;;;;;;5048548;28;20512;-66
2023/01/31 14:45:35;;;;;;;7.20;3.00;;;;;;;;;;5048348;28;20552;-66
2023/01/31 14:48:20;;;;;;;2.40;2.17;;;;;;;;;;5046646;28;20449;-66
2023/01/31 14:51:04;;;;;;;7.93;2.90;;;;;;;;;;5048881;28;20485;-66
2023/01/31 14:53:39;;;;;;;2.73;2.30;;;;;;;;;;5049033;28;20433;-66
2023/01/31 14:56:05;;;;;;;5.63;2.20;;;;;;;;;;5048352;28;20458;-67
2023/01/31 14:58:34;;;;;;;10.30;2.47;;;;;;;;;;5046856;28;20434;-66
2023/01/31 15:01:02;;;;;;;2.33;2.23;;;;;;;;;;5046533;28;20958;-61
2023/01/31 15:03:30;;;;;;;3.10;2.80;;;;;;;;;;5048654;28;20583;-67